Alden, MN

11:08 AM CST on March 03, 2015 (GMT -0600)
15797 600th Ave (Baroda) | Change Station
CLOSE
Current Station
Personal Weather Station
Location: Wells, MN
Elevation: 1230 ft
Nearby Weather Stations
Active Advisory: Blizzard Warning

Elev 1230 ft 43.71 °N, 93.67 °W | Updated 19 minutes ago

Overcast
Overcast
26.7 °F
Feels Like 18 °F
N
8.0
Wind Variable Wind from WNW
Gusts 9.0 mph

Today
High -- | Low -- °F
--% Chance of Precip.
Yesterday
High -- | Low -- °F
Precip. -- in
6:47 AM 6:05 PM
Waxing Gibbous, 96% visible
Pressure 29.67 in
Visibility 5.0 miles
Clouds Overcast 1100 ft
Windchill 18 °F
Dew Point 25 °F
Humidity 91%
Rainfall 0.00 in
Snow Depth Not available.
UV 1 out of 12
Pollen .40 out of 12
Air Quality Not available.
Flu Activity Not available.
METAR KAEL 031652Z AUTO 28009G16KT 5SM BR OVC011 M02/M03 A2967 RMK AO2

More Conditions Fewer Conditions

Pressure 29.67 in
Visibility 5.0 miles
Clouds Overcast 1100 ft
Windchill 18 °F
Dew Point 25 °F
Humidity 91%
Rainfall 0.00 in
Snow Depth Not available.
UV 1 out of 12
Pollen .40 out of 12
Air Quality Not available.
Flu Activity Not available.
METAR KAEL 031652Z AUTO 28009G16KT 5SM BR OVC011 M02/M03 A2967 RMK AO2

More Conditions Fewer Conditions

10-Day Weather Forecast

Almanac

Astronomy

Mar. 03, 2015 Rise Set
Actual Time
Civil Twilight
Nautical Twilight
Astronomical Twilight
Moon
Length of Visible Light
Length of Day
Tomorrow will be .
, % of the Moon is Illuminated

Today's Extremes

State Highs State Lows

Community

WunderPhotos

Upload Photos

1,802,172 photos uploaded!

WunderBlogs® & News

Nearby

Air Quality

  Air Quality AQ Index Pollutant
Not available.

Snow Depth

Station Depth Elevation

Earthquake Activity

City Distance Mag. Time & Date
Minimum magnitude displayed is 2.5.

Coastal Water Temperatures

Place Temperature

Nearby Weather Stations

Blizzard Warning
Statement as of 10:10 AM CST on March 03, 2015

... Blizzard Warning remains in effect until 9 PM CST this
evening...

* timing... light snow will taper off by early afternoon... then northwest
winds will increase behind a cold front. The strong winds will
produce considerable blowing snow and blizzard conditions
through early evening.

* Winds/visibility... wind gusts around 45 mph and visibility less
than one quarter mile in open areas. Visibilities will be a bit
better within city limits. The strong northwest winds will
develop by noon... and will continue into early evening.

* Impacts... travel will become dangerous with blizzard
conditions developing.

Precautionary/preparedness actions...

A Blizzard Warning means severe winter weather conditions are
expected or occurring. Falling and blowing snow with strong winds
and poor visibilities are likely. This will lead to whiteout
conditions... making travel extremely dangerous. Do not travel. If
you must travel... have a winter survival kit with you. If you get
stranded... stay with your vehicle.